createdAt,value
2017-11-18T00:00:07.961Z,0
2017-11-18T00:01:22.646Z,0
2017-11-18T00:02:08.021Z,0
2017-11-18T00:03:08.001Z,0
2017-11-18T00:04:08.023Z,0
2017-11-18T00:05:08.119Z,0
2017-11-18T00:06:07.799Z,0
2017-11-18T00:07:07.567Z,0
2017-11-18T00:08:08.093Z,0
2017-11-18T00:09:08.080Z,0
2017-11-18T00:10:08.131Z,0
2017-11-18T00:11:08.128Z,0
2017-11-18T00:12:07.888Z,0
2017-11-18T00:13:08.208Z,0
2017-11-18T00:14:08.185Z,0
2017-11-18T00:15:07.929Z,0
2017-11-18T00:16:07.939Z,0
2017-11-18T00:17:22.919Z,0
2017-11-18T00:18:22.898Z,0
2017-11-18T00:19:08.234Z,0
2017-11-18T00:20:08.277Z,0
2017-11-18T00:21:08.270Z,0
2017-11-18T00:22:08.287Z,0
2017-11-18T00:23:08.324Z,0
2017-11-18T00:24:08.432Z,0
2017-11-18T00:25:08.347Z,0
2017-11-18T00:27:08.378Z,0
2017-11-18T00:28:08.361Z,0
2017-11-18T00:29:08.130Z,0
2017-11-18T00:30:08.400Z,0
2017-11-18T00:31:08.401Z,0
2017-11-18T00:32:08.150Z,0
2017-11-18T00:33:23.131Z,0
2017-11-18T00:34:08.457Z,0
2017-11-18T00:36:08.483Z,0
2017-11-18T00:37:08.507Z,0
2017-11-18T00:38:08.513Z,0
2017-11-18T00:39:08.544Z,0
2017-11-18T00:40:23.219Z,0
2017-11-18T00:41:08.584Z,0
2017-11-18T00:42:08.585Z,0
2017-11-18T00:43:08.573Z,0
2017-11-18T00:44:08.620Z,0
2017-11-18T00:45:08.614Z,0
2017-11-18T00:46:23.303Z,0
2017-11-18T00:47:08.678Z,0
2017-11-18T00:48:08.414Z,0
2017-11-18T00:49:23.338Z,0
2017-11-18T00:50:08.696Z,0
2017-11-18T00:51:08.479Z,0
2017-11-18T00:52:08.751Z,0
2017-11-18T00:53:08.749Z,0
2017-11-18T00:54:08.741Z,0
2017-11-18T00:55:08.781Z,0
2017-11-18T00:56:08.513Z,0
2017-11-18T00:57:08.785Z,0
2017-11-18T00:58:08.822Z,0
2017-11-18T00:59:08.862Z,0
2017-11-18T01:00:08.856Z,0
2017-11-18T01:01:08.865Z,0
2017-11-18T01:02:08.876Z,0
2017-11-18T01:03:08.883Z,0
2017-11-18T01:04:08.649Z,0
2017-11-18T01:05:38.242Z,0
2017-11-18T01:06:08.938Z,0
2017-11-18T01:07:08.953Z,0
2017-11-18T01:08:08.987Z,0
2017-11-18T01:09:08.973Z,0
2017-11-18T01:10:08.991Z,0
2017-11-18T01:11:08.766Z,0
2017-11-18T01:13:09.011Z,0
2017-11-18T01:14:09.060Z,0
2017-11-18T01:15:09.057Z,0
2017-11-18T01:16:08.818Z,0
2017-11-18T01:17:08.812Z,0
2017-11-18T01:18:09.125Z,0
2017-11-18T01:19:09.121Z,0
2017-11-18T01:20:09.137Z,0
2017-11-18T01:21:23.811Z,0
2017-11-18T01:22:23.832Z,0
2017-11-18T01:23:09.195Z,0
2017-11-18T01:24:09.215Z,0
2017-11-18T01:25:09.228Z,0
2017-11-18T01:26:23.891Z,0
2017-11-18T01:27:23.926Z,0
2017-11-18T01:28:09.279Z,0
2017-11-18T01:29:09.267Z,0
2017-11-18T01:30:09.273Z,0
2017-11-18T01:31:09.332Z,0
2017-11-18T01:32:09.341Z,0
2017-11-18T01:33:09.321Z,0
2017-11-18T01:34:09.348Z,0
2017-11-18T01:35:09.379Z,0
2017-11-18T01:36:23.772Z,0
2017-11-18T01:37:09.386Z,0
2017-11-18T01:38:09.404Z,0
2017-11-18T01:39:09.418Z,0
2017-11-18T01:40:24.102Z,0
2017-11-18T01:41:24.103Z,0
2017-11-18T01:42:09.221Z,0
2017-11-18T01:43:09.240Z,0
2017-11-18T01:44:09.498Z,0
2017-11-18T01:45:09.515Z,0
2017-11-18T01:46:09.529Z,0
2017-11-18T01:47:09.660Z,0
2017-11-18T01:48:24.054Z,0
2017-11-18T01:49:09.310Z,0
2017-11-18T01:50:09.597Z,0
2017-11-18T01:51:09.604Z,0
2017-11-18T01:53:09.634Z,0
2017-11-18T01:56:09.393Z,0
2017-11-18T01:57:09.943Z,0
2017-11-18T01:58:09.694Z,0
2017-11-18T01:59:09.750Z,0
2017-11-18T02:00:09.470Z,0
2017-11-18T02:01:09.734Z,0
2017-11-18T02:02:09.759Z,0
2017-11-18T02:03:09.785Z,0
2017-11-18T02:04:24.438Z,0
2017-11-18T02:06:09.832Z,0
2017-11-18T02:07:09.834Z,0
2017-11-18T02:08:24.258Z,0
2017-11-18T02:09:09.605Z,0
2017-11-18T02:10:09.630Z,0
2017-11-18T02:11:09.898Z,0
2017-11-18T02:12:09.928Z,0
2017-11-18T02:13:24.585Z,0
2017-11-18T02:14:10.039Z,0
2017-11-18T02:15:09.994Z,0
2017-11-18T02:16:09.712Z,0
2017-11-18T02:17:09.999Z,0
2017-11-18T02:18:24.393Z,0
2017-11-18T02:19:10.039Z,0
2017-11-18T02:20:10.009Z,0
2017-11-18T02:21:10.061Z,0
2017-11-18T02:22:10.048Z,0
2017-11-18T02:23:10.065Z,0
2017-11-18T02:24:24.752Z,0
2017-11-18T02:25:09.846Z,0
2017-11-18T02:26:10.117Z,0
2017-11-18T02:27:10.115Z,0
2017-11-18T02:28:09.878Z,0
2017-11-18T02:29:09.901Z,0
2017-11-18T02:30:10.180Z,0
2017-11-18T02:31:24.839Z,0
2017-11-18T02:32:09.927Z,0
2017-11-18T02:33:09.969Z,0
2017-11-18T02:34:10.234Z,0
2017-11-18T02:35:24.931Z,0
2017-11-18T02:36:10.010Z,0
2017-11-18T02:37:10.297Z,0
2017-11-18T02:38:10.299Z,0
2017-11-18T02:39:10.333Z,0
2017-11-18T02:40:24.979Z,0
2017-11-18T02:41:10.338Z,0
2017-11-18T02:42:10.096Z,0
2017-11-18T02:43:10.410Z,0
2017-11-18T02:44:10.107Z,0
2017-11-18T02:45:10.433Z,0
2017-11-18T02:46:10.405Z,0
2017-11-18T02:47:25.093Z,0
2017-11-18T02:48:10.433Z,0
2017-11-18T02:49:10.456Z,0
2017-11-18T02:50:10.512Z,0
2017-11-18T02:51:10.221Z,0
2017-11-18T02:53:10.505Z,0
2017-11-18T02:54:10.254Z,0
2017-11-18T02:55:24.943Z,0
2017-11-18T02:56:25.204Z,0
2017-11-18T02:57:10.570Z,0
2017-11-18T02:58:10.562Z,0
2017-11-18T02:59:25.266Z,0
2017-11-18T03:00:10.102Z,0
2017-11-18T03:01:10.625Z,0
2017-11-18T03:02:10.366Z,0
2017-11-18T03:04:10.656Z,0
2017-11-18T03:05:10.412Z,0
2017-11-18T03:06:10.432Z,0
2017-11-18T03:07:10.707Z,0
2017-11-18T03:08:10.734Z,0
2017-11-18T03:09:10.737Z,0
2017-11-18T03:10:10.767Z,0
2017-11-18T03:11:40.081Z,0
2017-11-18T03:13:10.799Z,0
2017-11-18T03:14:10.807Z,0
2017-11-18T03:15:10.829Z,0
2017-11-18T03:16:25.495Z,0
2017-11-18T03:17:10.857Z,0
2017-11-18T03:18:10.874Z,0
2017-11-18T03:19:10.865Z,0
2017-11-18T03:20:10.904Z,0
2017-11-18T03:21:10.937Z,0
2017-11-18T03:22:10.656Z,0
2017-11-18T03:23:10.952Z,0
2017-11-18T03:24:10.678Z,0
2017-11-18T03:25:10.996Z,0
2017-11-18T03:26:25.654Z,0
2017-11-18T03:27:11.006Z,0
2017-11-18T03:28:11.030Z,0
2017-11-18T03:29:11.023Z,0
2017-11-18T03:30:11.050Z,0
2017-11-18T03:32:11.084Z,0
2017-11-18T03:33:10.836Z,0
2017-11-18T03:34:11.118Z,0
2017-11-18T03:35:11.100Z,0
2017-11-18T03:36:11.135Z,0
2017-11-18T03:37:11.159Z,0
2017-11-18T03:38:10.890Z,0
2017-11-18T03:39:11.193Z,0
2017-11-18T03:40:11.173Z,0
2017-11-18T03:41:11.218Z,0
2017-11-18T03:42:10.966Z,0
2017-11-18T03:43:25.899Z,0
2017-11-18T03:44:11.261Z,0
2017-11-18T03:45:11.252Z,0
2017-11-18T03:48:11.322Z,0
2017-11-18T03:49:11.346Z,0
2017-11-18T03:50:11.351Z,0
2017-11-18T03:51:11.355Z,0
2017-11-18T03:52:11.094Z,0
2017-11-18T03:53:11.366Z,0
2017-11-18T03:54:11.435Z,0
2017-11-18T03:56:11.425Z,0
2017-11-18T03:57:11.417Z,0
2017-11-18T03:58:11.443Z,0
2017-11-18T03:59:26.133Z,0
2017-11-18T04:00:11.484Z,0
2017-11-18T04:01:11.246Z,0
2017-11-18T04:03:11.535Z,0
2017-11-18T04:04:11.289Z,0
2017-11-18T04:05:26.228Z,0
2017-11-18T04:06:11.311Z,0
2017-11-18T04:07:11.591Z,0
2017-11-18T04:08:11.351Z,0
2017-11-18T04:09:11.628Z,0
2017-11-18T04:10:11.360Z,0
2017-11-18T04:11:11.657Z,0
2017-11-18T04:12:11.657Z,0
2017-11-18T04:13:11.405Z,0
2017-11-18T04:14:11.694Z,0
2017-11-18T04:15:26.367Z,0
2017-11-18T04:16:11.738Z,0
2017-11-18T04:17:11.748Z,0
2017-11-18T04:18:11.469Z,0
2017-11-18T04:19:11.488Z,0
2017-11-18T04:20:26.449Z,0
2017-11-18T04:21:11.572Z,0
2017-11-18T04:22:11.545Z,0
2017-11-18T04:23:26.489Z,0
2017-11-18T04:24:11.566Z,0
2017-11-18T04:25:11.837Z,0
2017-11-18T04:26:11.859Z,0
2017-11-18T04:27:11.881Z,0
2017-11-18T04:28:26.557Z,0
2017-11-18T04:29:11.978Z,0
2017-11-18T04:30:26.602Z,0
2017-11-18T04:31:26.605Z,0
2017-11-18T04:32:11.972Z,0
2017-11-18T04:33:11.982Z,0
2017-11-18T04:34:11.464Z,0
2017-11-18T04:35:26.648Z,0
2017-11-18T04:36:26.677Z,0
2017-11-18T04:37:12.043Z,0
2017-11-18T04:38:26.695Z,0
2017-11-18T04:39:11.797Z,0
2017-11-18T04:40:12.080Z,0
2017-11-18T04:41:12.093Z,0
2017-11-18T04:42:12.116Z,0
2017-11-18T04:43:12.111Z,0
2017-11-18T04:44:12.152Z,0
2017-11-18T04:45:12.156Z,0
2017-11-18T04:46:26.826Z,0
2017-11-18T04:47:12.180Z,0
2017-11-18T04:49:12.211Z,0
2017-11-18T04:50:12.232Z,0
2017-11-18T04:51:12.260Z,0
2017-11-18T04:52:12.276Z,0
2017-11-18T04:53:12.279Z,0
2017-11-18T04:54:12.022Z,0
2017-11-18T04:55:12.301Z,0
2017-11-18T04:56:26.961Z,0
2017-11-18T04:57:12.087Z,0
2017-11-18T04:58:12.380Z,0
2017-11-18T04:59:12.362Z,0
2017-11-18T05:00:12.384Z,0
2017-11-18T05:01:12.393Z,0
2017-11-18T05:03:12.156Z,0
2017-11-18T05:04:12.437Z,0
2017-11-18T05:05:27.101Z,0
2017-11-18T05:07:12.475Z,0
2017-11-18T05:08:12.492Z,0
2017-11-18T05:09:12.504Z,0
2017-11-18T05:10:27.177Z,0
2017-11-18T05:11:12.555Z,0
2017-11-18T05:12:12.283Z,0
2017-11-18T05:13:26.980Z,0
2017-11-18T05:14:12.307Z,0
2017-11-18T05:15:27.248Z,0
2017-11-18T05:16:12.626Z,0
2017-11-18T05:17:12.648Z,0
2017-11-18T05:18:27.298Z,0
2017-11-18T05:19:12.653Z,0
2017-11-18T05:20:12.684Z,0
2017-11-18T05:21:12.415Z,0
2017-11-18T05:22:12.444Z,0
2017-11-18T05:23:12.720Z,0
2017-11-18T05:24:12.785Z,0
2017-11-18T05:25:12.507Z,0
2017-11-18T05:26:27.433Z,0
2017-11-18T05:27:27.450Z,0
2017-11-18T05:28:12.276Z,0
2017-11-18T05:29:12.837Z,0
2017-11-18T05:30:12.841Z,0
2017-11-18T05:31:12.830Z,0
2017-11-18T05:32:12.599Z,0
2017-11-18T05:33:12.866Z,0
2017-11-18T05:34:27.561Z,0
2017-11-18T05:35:12.905Z,0
2017-11-18T05:36:12.917Z,0
2017-11-18T05:37:27.601Z,0
2017-11-18T05:38:12.687Z,0
2017-11-18T05:39:27.633Z,0
2017-11-18T05:41:12.993Z,0
2017-11-18T05:42:13.140Z,0
2017-11-18T05:43:13.022Z,0
2017-11-18T05:44:13.054Z,0
2017-11-18T05:45:13.077Z,0
2017-11-18T05:46:13.049Z,0
2017-11-18T05:47:13.093Z,0
2017-11-18T05:48:13.076Z,0
2017-11-18T05:49:13.118Z,0
2017-11-18T05:50:27.800Z,0
2017-11-18T05:51:13.180Z,0
2017-11-18T05:52:27.838Z,0
2017-11-18T05:53:12.906Z,0
2017-11-18T05:54:27.593Z,0
2017-11-18T05:55:13.217Z,0
2017-11-18T05:56:27.886Z,0
2017-11-18T05:57:27.891Z,0
2017-11-18T05:59:13.272Z,0
2017-11-18T06:01:13.297Z,0
2017-11-18T06:02:13.323Z,0
2017-11-18T06:03:13.342Z,0
2017-11-18T06:04:13.087Z,4
2017-11-18T06:05:13.368Z,0
2017-11-18T06:06:28.044Z,4
2017-11-18T06:07:13.408Z,4
2017-11-18T06:08:13.424Z,4
2017-11-18T06:09:13.142Z,0
2017-11-18T06:10:13.437Z,4
2017-11-18T06:11:13.486Z,4
2017-11-18T06:12:13.479Z,4
2017-11-18T06:13:13.504Z,8
2017-11-18T06:14:13.246Z,8
2017-11-18T06:15:13.496Z,12
2017-11-18T06:16:13.530Z,12
2017-11-18T06:17:13.561Z,16
2017-11-18T06:18:13.588Z,20
2017-11-18T06:19:13.574Z,24
2017-11-18T06:20:13.613Z,28
2017-11-18T06:22:28.261Z,40
2017-11-18T06:23:13.649Z,48
2017-11-18T06:24:13.709Z,56
2017-11-18T06:25:13.671Z,68
2017-11-18T06:26:13.709Z,80
2017-11-18T06:27:13.703Z,108
2017-11-18T06:28:13.700Z,136
2017-11-18T06:29:13.751Z,176
2017-11-18T06:30:13.754Z,208
2017-11-18T06:31:13.777Z,240
2017-11-18T06:32:13.259Z,268
2017-11-18T06:33:13.810Z,292
2017-11-18T06:34:13.800Z,316
2017-11-18T06:35:13.822Z,328
2017-11-18T06:37:13.848Z,280
2017-11-18T06:38:13.895Z,260
2017-11-18T06:39:13.886Z,248
2017-11-18T06:40:13.920Z,252
2017-11-18T06:41:13.906Z,268
2017-11-18T06:42:28.615Z,304
2017-11-18T06:43:13.954Z,344
2017-11-18T06:44:13.698Z,420
2017-11-18T06:45:13.971Z,480
2017-11-18T06:46:14.025Z,560
2017-11-18T06:47:14.017Z,672
2017-11-18T06:48:14.044Z,780
2017-11-18T06:49:14.059Z,872
2017-11-18T06:50:14.093Z,980
2017-11-18T06:51:14.174Z,1120
2017-11-18T06:52:14.048Z,1160
2017-11-18T06:53:28.766Z,1148
2017-11-18T06:55:14.141Z,1240
2017-11-18T06:56:13.893Z,1252
2017-11-18T06:57:14.161Z,1256
2017-11-18T06:58:14.189Z,1292
2017-11-18T06:59:28.858Z,1368
2017-11-18T07:00:14.204Z,1412
2017-11-18T07:01:13.977Z,1484
2017-11-18T07:02:14.246Z,1564
2017-11-18T07:03:28.910Z,1648
2017-11-18T07:04:28.912Z,1740
2017-11-18T07:05:14.283Z,1812
2017-11-18T07:06:28.700Z,1924
2017-11-18T07:07:14.316Z,1980
2017-11-18T07:08:29.002Z,2032
2017-11-18T07:09:29.109Z,2056
2017-11-18T07:10:14.388Z,2076
2017-11-18T07:11:14.466Z,2100
2017-11-18T07:12:14.123Z,2132
2017-11-18T07:13:14.418Z,2176
2017-11-18T07:14:14.435Z,2248
2017-11-18T07:15:29.100Z,2324
2017-11-18T07:16:14.196Z,2372
2017-11-18T07:17:14.198Z,2416
2017-11-18T07:18:14.496Z,2436
2017-11-18T07:19:29.163Z,2612
2017-11-18T07:20:14.526Z,2632
2017-11-18T07:21:29.184Z,2704
2017-11-18T07:22:14.525Z,2684
2017-11-18T07:23:14.567Z,2760
2017-11-18T07:24:14.575Z,2920
2017-11-18T07:25:43.908Z,3056
2017-11-18T07:26:28.999Z,3128
2017-11-18T07:27:14.639Z,3200
2017-11-18T07:28:14.640Z,3288
2017-11-18T07:29:14.661Z,3356
2017-11-18T07:30:14.671Z,3420
2017-11-18T07:31:14.675Z,3524
2017-11-18T07:32:14.700Z,3792
2017-11-18T07:34:14.465Z,4568
2017-11-18T07:35:14.754Z,4756
2017-11-18T07:36:29.420Z,4836
2017-11-18T07:37:14.787Z,5040
2017-11-18T07:38:14.802Z,5180
2017-11-18T07:39:14.796Z,5036
2017-11-18T07:40:14.832Z,4748
2017-11-18T07:41:29.503Z,4384
2017-11-18T07:43:14.852Z,3948
2017-11-18T07:44:14.899Z,3708
2017-11-18T07:45:14.919Z,3480
2017-11-18T07:46:14.669Z,3372
2017-11-18T07:47:14.930Z,3320
2017-11-18T07:48:14.943Z,3308
2017-11-18T07:49:15.026Z,3324
2017-11-18T07:50:14.990Z,3292
2017-11-18T07:51:14.983Z,3168
2017-11-18T07:52:29.704Z,3048
2017-11-18T07:53:29.686Z,2996
2017-11-18T07:54:15.046Z,2992
2017-11-18T07:55:14.809Z,2992
2017-11-18T07:58:14.860Z,2960
2017-11-18T08:00:15.160Z,2660
2017-11-18T08:01:15.159Z,2568
2017-11-18T08:02:15.188Z,2572
2017-11-18T08:04:15.189Z,2724
2017-11-18T08:05:15.221Z,2536
2017-11-18T08:07:15.264Z,2252
2017-11-18T08:08:15.273Z,2476
2017-11-18T08:09:15.289Z,2616
2017-11-18T08:10:15.306Z,2684
2017-11-18T08:11:15.331Z,2756
2017-11-18T08:12:29.455Z,2920
2017-11-18T08:13:15.367Z,3020
2017-11-18T08:14:15.371Z,3028
2017-11-18T08:15:15.393Z,2816
2017-11-18T08:16:15.372Z,2616
2017-11-18T08:17:15.414Z,2604
2017-11-18T08:18:15.188Z,2488
2017-11-18T08:19:15.442Z,2316
2017-11-18T08:20:15.446Z,2284
2017-11-18T08:21:15.486Z,2264
2017-11-18T08:22:15.476Z,2204
2017-11-18T08:23:15.515Z,2212
2017-11-18T08:24:15.546Z,2288
2017-11-18T08:25:15.531Z,2264
2017-11-18T08:26:15.544Z,2276
2017-11-18T08:27:15.689Z,2344
2017-11-18T08:28:29.982Z,2288
2017-11-18T08:29:30.274Z,2280
2017-11-18T08:30:15.638Z,2236
2017-11-18T08:31:15.646Z,2224
2017-11-18T08:32:15.394Z,2188
2017-11-18T08:33:30.332Z,2204
2017-11-18T08:34:15.680Z,2220
2017-11-18T08:35:30.347Z,2536
2017-11-18T08:36:15.731Z,2684
2017-11-18T08:37:15.730Z,2804
2017-11-18T08:38:15.764Z,2888
2017-11-18T08:39:15.516Z,2824
2017-11-18T08:40:15.550Z,2728
2017-11-18T08:41:30.465Z,2584
2017-11-18T08:42:15.542Z,2572
2017-11-18T08:43:15.859Z,2660
2017-11-18T08:44:29.981Z,2704
2017-11-18T08:46:15.927Z,2556
2017-11-18T08:47:15.643Z,2480
2017-11-18T08:48:15.910Z,2496
2017-11-18T08:49:15.670Z,2452
2017-11-18T08:50:15.921Z,2384
2017-11-18T08:51:15.961Z,2376
2017-11-18T08:52:15.971Z,2440
2017-11-18T08:54:16.032Z,2384
2017-11-18T08:55:16.041Z,2344
2017-11-18T08:56:30.446Z,2376
2017-11-18T08:57:16.068Z,2348
2017-11-18T08:58:30.743Z,2492
2017-11-18T08:59:16.093Z,2556
2017-11-18T09:00:30.760Z,2496
2017-11-18T09:02:16.151Z,2608
2017-11-18T09:03:16.170Z,2700
2017-11-18T09:04:16.164Z,2692
2017-11-18T09:05:15.925Z,2604
2017-11-18T09:06:16.209Z,2568
2017-11-18T09:07:16.222Z,2556
2017-11-18T09:09:16.377Z,2472
2017-11-18T09:10:16.269Z,2484
2017-11-18T09:11:16.360Z,2492
2017-11-18T09:13:16.068Z,2480
2017-11-18T09:14:31.014Z,2332
2017-11-18T09:15:16.396Z,2276
2017-11-18T09:16:31.036Z,2148
2017-11-18T09:17:31.039Z,2036
2017-11-18T09:18:16.444Z,1980
2017-11-18T09:19:16.446Z,1936
2017-11-18T09:20:30.846Z,1948
2017-11-18T09:21:16.186Z,1952
2017-11-18T09:22:16.567Z,1956
2017-11-18T09:24:16.511Z,1904
2017-11-18T09:25:16.527Z,1888
2017-11-18T09:26:16.509Z,1932
2017-11-18T09:27:16.552Z,2008
2017-11-18T09:28:16.561Z,2064
2017-11-18T09:29:16.588Z,2092
2017-11-18T09:30:16.597Z,2140
2017-11-18T09:31:31.031Z,2136
2017-11-18T09:32:16.624Z,2132
2017-11-18T09:33:16.675Z,2176
2017-11-18T09:34:16.649Z,2116
2017-11-18T09:36:16.700Z,2076
2017-11-18T09:37:16.736Z,2044
2017-11-18T09:38:16.473Z,2020
2017-11-18T09:39:31.417Z,1972
2017-11-18T09:40:16.773Z,1912
2017-11-18T09:41:31.448Z,1856
2017-11-18T09:42:16.812Z,1836
2017-11-18T09:43:16.846Z,1804
2017-11-18T09:44:16.311Z,1796
2017-11-18T09:45:16.875Z,1800
2017-11-18T09:47:16.896Z,1832
2017-11-18T09:48:31.551Z,1872
2017-11-18T09:49:16.685Z,1876
2017-11-18T09:50:16.938Z,1920
2017-11-18T09:51:16.966Z,1956
2017-11-18T09:52:16.688Z,1916
2017-11-18T09:53:16.966Z,1908
2017-11-18T09:54:17.023Z,1912
2017-11-18T09:55:17.123Z,1956
2017-11-18T09:56:16.783Z,1896
2017-11-18T09:57:17.067Z,1812
2017-11-18T09:58:31.703Z,1780
2017-11-18T09:59:16.826Z,1812
2017-11-18T10:00:17.067Z,1848
2017-11-18T10:01:17.115Z,1888
2017-11-18T10:02:17.143Z,1972
2017-11-18T10:03:31.806Z,2024
2017-11-18T10:04:17.173Z,2012
2017-11-18T10:05:17.194Z,2028
2017-11-18T10:06:17.175Z,2004
2017-11-18T10:07:16.960Z,1976
2017-11-18T10:08:16.989Z,1896
2017-11-18T10:09:17.249Z,1836
2017-11-18T10:10:17.272Z,1788
2017-11-18T10:11:17.279Z,1800
2017-11-18T10:12:17.297Z,1788
2017-11-18T10:13:31.987Z,1696
2017-11-18T10:14:17.342Z,1676
2017-11-18T10:15:17.356Z,1728
2017-11-18T10:16:32.023Z,1804
2017-11-18T10:17:17.372Z,1800
2017-11-18T10:18:17.382Z,1804
2017-11-18T10:19:32.085Z,1752
2017-11-18T10:20:17.436Z,1724
2017-11-18T10:21:32.103Z,1764
2017-11-18T10:22:17.456Z,1784
2017-11-18T10:23:17.485Z,1832
2017-11-18T10:25:17.501Z,1872
2017-11-18T10:26:17.545Z,1844
2017-11-18T10:27:17.556Z,1876
2017-11-18T10:28:17.548Z,1852
2017-11-18T10:29:17.609Z,1840
2017-11-18T10:30:17.589Z,1836
2017-11-18T10:31:17.660Z,1804
2017-11-18T10:32:17.362Z,1804
2017-11-18T10:33:17.674Z,1792
2017-11-18T10:34:17.670Z,1768
2017-11-18T10:35:32.362Z,1764
2017-11-18T10:36:17.679Z,1756
2017-11-18T10:37:17.731Z,1760
2017-11-18T10:38:17.824Z,1692
2017-11-18T10:39:17.758Z,1628
2017-11-18T10:40:17.760Z,1612
2017-11-18T10:41:17.783Z,1588
2017-11-18T10:42:17.816Z,1464
2017-11-18T10:44:17.585Z,1420
2017-11-18T10:45:17.860Z,1436
2017-11-18T10:46:17.872Z,1484
2017-11-18T10:47:17.894Z,1536
2017-11-18T10:48:17.903Z,1532
2017-11-18T10:49:17.919Z,1540
2017-11-18T10:50:17.982Z,1560
2017-11-18T10:51:32.624Z,1532
2017-11-18T10:52:17.942Z,1540
2017-11-18T10:53:17.991Z,1540
2017-11-18T10:54:17.985Z,1560
2017-11-18T10:56:18.042Z,1656
2017-11-18T10:57:18.035Z,1676
2017-11-18T10:58:32.474Z,1684
2017-11-18T10:59:32.775Z,1700
2017-11-18T11:00:18.126Z,1652
2017-11-18T11:01:18.222Z,1632
2017-11-18T11:02:32.811Z,1456
2017-11-18T11:03:32.807Z,1424
2017-11-18T11:04:18.168Z,1420
2017-11-18T11:05:18.195Z,1344
2017-11-18T11:06:32.862Z,1240
2017-11-18T11:08:32.903Z,1196
2017-11-18T11:09:17.984Z,1156
2017-11-18T11:10:18.280Z,1140
2017-11-18T11:11:18.018Z,1164
2017-11-18T11:12:32.961Z,1256
2017-11-18T11:13:18.055Z,1344
2017-11-18T11:14:18.335Z,1440
2017-11-18T11:15:32.997Z,1456
2017-11-18T11:16:18.404Z,1444
2017-11-18T11:17:33.049Z,1408
2017-11-18T11:18:33.064Z,1376
2017-11-18T11:20:18.434Z,1364
2017-11-18T11:21:18.446Z,1380
2017-11-18T11:22:18.497Z,1428
2017-11-18T11:23:18.500Z,1488
2017-11-18T11:24:18.480Z,1452
2017-11-18T11:25:18.001Z,1516
2017-11-18T11:26:18.545Z,1576
2017-11-18T11:27:18.555Z,1664
2017-11-18T11:28:32.970Z,1768
2017-11-18T11:29:18.588Z,1824
2017-11-18T11:30:33.260Z,1868
2017-11-18T11:31:18.357Z,1904
2017-11-18T11:32:18.650Z,2072
2017-11-18T11:33:18.649Z,2172
2017-11-18T11:34:18.697Z,2176
2017-11-18T11:35:18.694Z,2176
2017-11-18T11:36:18.699Z,2196
2017-11-18T11:37:33.372Z,2156
2017-11-18T11:38:33.394Z,2100
2017-11-18T11:39:18.751Z,2132
2017-11-18T11:40:18.501Z,2228
2017-11-18T11:41:18.788Z,2436
2017-11-18T11:42:18.814Z,2548
2017-11-18T11:43:18.817Z,2624
2017-11-18T11:44:33.483Z,2600
2017-11-18T11:45:18.855Z,2388
2017-11-18T11:46:18.868Z,2404
2017-11-18T11:47:18.897Z,2536
2017-11-18T11:48:18.925Z,2524
2017-11-18T11:49:18.904Z,2432
2017-11-18T11:50:18.689Z,2380
2017-11-18T11:51:18.695Z,2288
2017-11-18T11:52:18.965Z,2176
2017-11-18T11:53:19.008Z,1992
2017-11-18T11:54:33.661Z,1972
2017-11-18T11:55:19.060Z,1980
2017-11-18T11:56:19.041Z,1964
2017-11-18T11:57:18.815Z,2016
2017-11-18T11:58:19.080Z,2104
2017-11-18T11:59:18.821Z,2184
2017-11-18T12:00:19.109Z,2272
2017-11-18T12:01:19.121Z,2380
2017-11-18T12:02:19.147Z,2596
2017-11-18T12:03:19.155Z,2824
2017-11-18T12:04:19.174Z,2860
2017-11-18T12:05:19.181Z,2936
2017-11-18T12:06:19.316Z,3124
2017-11-18T12:07:19.321Z,3284
2017-11-18T12:08:19.244Z,3400
2017-11-18T12:09:19.281Z,3468
2017-11-18T12:10:48.601Z,3484
2017-11-18T12:11:19.310Z,3492
2017-11-18T12:12:19.314Z,3560
2017-11-18T12:13:19.338Z,3688
2017-11-18T12:14:19.365Z,3844
2017-11-18T12:15:19.364Z,3956
2017-11-18T12:16:19.395Z,4008
2017-11-18T12:17:33.797Z,3948
2017-11-18T12:18:19.459Z,3784
2017-11-18T12:20:19.433Z,3228
2017-11-18T12:21:33.878Z,3012
2017-11-18T12:23:19.532Z,2900
2017-11-18T12:24:34.183Z,2920
2017-11-18T12:25:19.544Z,2972
2017-11-18T12:26:34.233Z,3136
2017-11-18T12:27:19.566Z,3144
2017-11-18T12:28:19.660Z,3196
2017-11-18T12:29:19.603Z,3328
2017-11-18T12:30:19.633Z,3484
2017-11-18T12:31:19.649Z,3576
2017-11-18T12:32:19.410Z,3664
2017-11-18T12:33:19.676Z,3788
2017-11-18T12:34:34.439Z,3916
2017-11-18T12:35:19.701Z,3856
2017-11-18T12:37:19.744Z,3852
2017-11-18T12:38:19.759Z,3832
2017-11-18T12:39:19.528Z,3828
2017-11-18T12:40:19.813Z,3776
2017-11-18T12:41:34.497Z,3556
2017-11-18T12:42:34.484Z,3272
2017-11-18T12:43:19.884Z,3128
2017-11-18T12:45:34.559Z,2928
2017-11-18T12:46:19.916Z,2988
2017-11-18T12:48:19.691Z,3252
2017-11-18T12:49:19.942Z,3280
2017-11-18T12:50:19.994Z,3128
2017-11-18T12:51:20.006Z,2900
2017-11-18T12:52:20.015Z,2728
2017-11-18T12:53:20.039Z,2596
2017-11-18T12:54:19.785Z,2480
2017-11-18T12:55:20.075Z,2284
2017-11-18T12:56:20.106Z,2096
2017-11-18T12:57:20.147Z,1984
2017-11-18T12:58:19.855Z,1872
2017-11-18T12:59:20.133Z,1752
2017-11-18T13:00:19.897Z,1744
2017-11-18T13:01:20.165Z,1772
2017-11-18T13:02:19.930Z,1780
2017-11-18T13:03:20.207Z,1752
2017-11-18T13:04:20.210Z,1724
2017-11-18T13:05:20.234Z,1664
2017-11-18T13:06:20.250Z,1596
2017-11-18T13:08:20.286Z,1520
2017-11-18T13:09:20.307Z,1508
2017-11-18T13:10:35.000Z,1460
2017-11-18T13:11:20.335Z,1432
2017-11-18T13:12:20.383Z,1268
2017-11-18T13:13:35.023Z,1204
2017-11-18T13:14:20.142Z,1216
2017-11-18T13:15:20.430Z,1188
2017-11-18T13:16:20.436Z,1224
2017-11-18T13:17:20.444Z,1320
2017-11-18T13:18:20.465Z,1412
2017-11-18T13:19:20.486Z,1520
2017-11-18T13:20:20.517Z,1644
2017-11-18T13:21:20.516Z,1716
2017-11-18T13:22:20.543Z,1736
2017-11-18T13:23:20.546Z,1796
2017-11-18T13:24:20.302Z,1928
2017-11-18T13:25:20.585Z,2040
2017-11-18T13:26:20.600Z,2104
2017-11-18T13:28:20.365Z,2084
2017-11-18T13:29:35.042Z,2104
2017-11-18T13:31:20.696Z,2244
2017-11-18T13:32:20.719Z,2316
2017-11-18T13:33:20.205Z,2400
2017-11-18T13:34:20.756Z,2504
2017-11-18T13:35:20.767Z,2528
2017-11-18T13:36:20.519Z,2404
2017-11-18T13:37:20.792Z,2460
2017-11-18T13:38:20.806Z,2428
2017-11-18T13:39:20.851Z,2436
2017-11-18T13:40:20.827Z,2452
2017-11-18T13:41:20.892Z,2456
2017-11-18T13:42:20.882Z,2452
2017-11-18T13:43:20.617Z,2472
2017-11-18T13:45:35.596Z,2420
2017-11-18T13:46:35.608Z,2416
2017-11-18T13:47:20.684Z,2376
2017-11-18T13:48:21.025Z,2272
2017-11-18T13:49:21.005Z,2116
2017-11-18T13:50:21.017Z,2040
2017-11-18T13:51:21.028Z,1960
2017-11-18T13:52:21.056Z,1888
2017-11-18T13:53:21.074Z,1820
2017-11-18T13:54:21.072Z,1760
2017-11-18T13:55:21.102Z,1700
2017-11-18T13:56:21.128Z,1644
2017-11-18T13:57:21.152Z,1608
2017-11-18T13:58:21.152Z,1576
2017-11-18T13:59:21.182Z,1540
2017-11-18T14:00:35.849Z,1524
2017-11-18T14:01:35.608Z,1528
2017-11-18T14:02:20.972Z,1480
2017-11-18T14:03:21.262Z,1404
2017-11-18T14:04:35.668Z,1416
2017-11-18T14:05:21.275Z,1468
2017-11-18T14:07:21.322Z,1432
2017-11-18T14:08:35.985Z,1364
2017-11-18T14:09:35.997Z,1276
2017-11-18T14:10:21.354Z,1216
2017-11-18T14:11:21.405Z,1188
2017-11-18T14:12:21.401Z,1216
2017-11-18T14:14:21.440Z,1272
2017-11-18T14:15:21.452Z,1092
2017-11-18T14:16:36.143Z,960
2017-11-18T14:17:21.487Z,888
2017-11-18T14:18:21.502Z,804
2017-11-18T14:19:21.536Z,676
2017-11-18T14:20:36.183Z,636
2017-11-18T14:21:21.561Z,576
2017-11-18T14:22:21.577Z,444
2017-11-18T14:23:21.562Z,352
2017-11-18T14:24:36.264Z,284
2017-11-18T14:25:21.590Z,248
2017-11-18T14:26:21.648Z,228
2017-11-18T14:27:21.676Z,224
2017-11-18T14:29:21.697Z,232
2017-11-18T14:30:21.438Z,212
2017-11-18T14:31:21.709Z,184
2017-11-18T14:32:21.736Z,160
2017-11-18T14:33:21.766Z,144
2017-11-18T14:34:21.777Z,132
2017-11-18T14:35:21.511Z,120
2017-11-18T14:36:21.553Z,120
2017-11-18T14:37:21.841Z,136
2017-11-18T14:38:21.829Z,152
2017-11-18T14:39:21.859Z,140
2017-11-18T14:40:21.908Z,128
2017-11-18T14:41:21.908Z,116
2017-11-18T14:42:21.904Z,108
2017-11-18T14:43:36.590Z,92
2017-11-18T14:44:21.924Z,88
2017-11-18T14:45:21.990Z,84
2017-11-18T14:46:21.992Z,84
2017-11-18T14:47:21.997Z,88
2017-11-18T14:48:36.674Z,80
2017-11-18T14:49:22.033Z,84
2017-11-18T14:50:22.019Z,92
2017-11-18T14:51:22.085Z,84
2017-11-18T14:52:22.086Z,76